Aviation Digital Data Service (ADDS)

Output produced by METARs form (1140 UTC 23 February 2017)
found at http://aviationweather.gov/adds/metars/
 
METAR text: KSPB 231125Z AUTO 27004KT 3SM BR CLR M02/M02 A3023 RMK AO2 I1000 T10221022
Conditions at: KSPB (SCAPPOOSE , OR, US) observed 1125 UTC 23 February 2017
Temperature: -2.2°C (28°F)
Dewpoint: -2.2°C (28°F) [RH = 100%]
Pressure (altimeter): 30.23 inches Hg (1023.8 mb)
Winds: from the W (270 degrees) at 5 MPH (4 knots; 2.1 m/s)
Visibility: 3 miles (5 km)
Ceiling: at least 12,000 feet AGL
Clouds: sky clear below 12,000 feet AGL
Weather: BR  (mist)

METAR text: KSPB 231116Z AUTO 26003KT 1 3/4SM BR CLR M02/M02 A3023 RMK AO2 I1000 T10171017
Conditions at: KSPB (SCAPPOOSE , OR, US) observed 1116 UTC 23 February 2017
Temperature: -1.7°C (29°F)
Dewpoint: -1.7°C (29°F) [RH = 100%]
Pressure (altimeter): 30.23 inches Hg (1023.8 mb)
Winds: from the W (260 degrees) at 3 MPH (3 knots; 1.6 m/s)
Visibility: 1.75 miles (2.82 km)
Ceiling: at least 12,000 feet AGL
Clouds: sky clear below 12,000 feet AGL
Weather: BR  (mist)

METAR text: KSPB 231109Z AUTO 00000KT 3SM BR CLR M02/M02 A3023 RMK AO2 T10221022
Conditions at: KSPB (SCAPPOOSE , OR, US) observed 1109 UTC 23 February 2017
Temperature: -2.2°C (28°F)
Dewpoint: -2.2°C (28°F) [RH = 100%]
Pressure (altimeter): 30.23 inches Hg (1023.8 mb)
Winds: calm
Visibility: 3 miles (5 km)
Ceiling: at least 12,000 feet AGL
Clouds: sky clear below 12,000 feet AGL
Weather: BR  (mist)

METAR text: KSPB 231053Z AUTO 00000KT 1 3/4SM BR SCT001 M03/M03 A3023 RMK AO2 SLP236 I1000 T10281028
Conditions at: KSPB (SCAPPOOSE , OR, US) observed 1053 UTC 23 February 2017
Temperature: -2.8°C (27°F)
Dewpoint: -2.8°C (27°F) [RH = 100%]
Pressure (altimeter): 30.23 inches Hg (1023.8 mb)
[Sea-level pressure: 1023.6 mb]
Winds: calm
Visibility: 1.75 miles (2.82 km)
Ceiling: at least 12,000 feet AGL
Clouds: scattered clouds at 100 feet AGL
Weather: BR  (mist)

METAR text: KSPB 231049Z AUTO 00000KT 1 1/4SM BR SCT001 M02/M02 A3023 RMK AO2 I1000
Conditions at: KSPB (SCAPPOOSE , OR, US) observed 1049 UTC 23 February 2017
Temperature: -2.0°C (28°F)
Dewpoint: -2.0°C (28°F) [RH = 100%]
Pressure (altimeter): 30.23 inches Hg (1023.8 mb)
Winds: calm
Visibility: 1.25 miles (2.01 km)
Ceiling: at least 12,000 feet AGL
Clouds: scattered clouds at 100 feet AGL
Weather: BR  (mist)

METAR text: KSPB 231033Z AUTO 06003KT 1/2SM FZFG BKN001 BKN031 M02/M02 A3023 RMK AO2 T10171022
Conditions at: KSPB (SCAPPOOSE , OR, US) observed 1033 UTC 23 February 2017
Temperature: -1.7°C (29°F)
Dewpoint: -2.2°C (28°F) [RH = 96%]
Pressure (altimeter): 30.23 inches Hg (1023.8 mb)
Winds: from the ENE (60 degrees) at 3 MPH (3 knots; 1.6 m/s)
Visibility: 0.50 miles (0.80 km)
Ceiling: 100 feet AGL
Clouds: broken clouds at 100 feet AGL
broken clouds at 3100 feet AGL
Weather: FZFG  (freezing fog)

METAR text: KSPB 231025Z AUTO 09003KT 1 3/4SM BR FEW001 SCT031 M02/M02 A3023 RMK AO2 T10221022
Conditions at: KSPB (SCAPPOOSE , OR, US) observed 1025 UTC 23 February 2017
Temperature: -2.2°C (28°F)
Dewpoint: -2.2°C (28°F) [RH = 100%]
Pressure (altimeter): 30.23 inches Hg (1023.8 mb)
Winds: from the E (90 degrees) at 3 MPH (3 knots; 1.6 m/s)
Visibility: 1.75 miles (2.82 km)
Ceiling: at least 12,000 feet AGL
Clouds: few clouds at 100 feet AGL
scattered clouds at 3100 feet AGL
Weather: BR  (mist)

METAR text: KSPB 230953Z AUTO 25003KT 10SM SCT032 M02/M02 A3023 RMK AO2 SLP237 I1001 T10171017
Conditions at: KSPB (SCAPPOOSE , OR, US) observed 0953 UTC 23 February 2017
Temperature: -1.7°C (29°F)
Dewpoint: -1.7°C (29°F) [RH = 100%]
Pressure (altimeter): 30.23 inches Hg (1023.8 mb)
[Sea-level pressure: 1023.7 mb]
Winds: from the WSW (250 degrees) at 3 MPH (3 knots; 1.6 m/s)
Visibility: 10 or more miles (16+ km)
Ceiling: at least 12,000 feet AGL
Clouds: scattered clouds at 3200 feet AGL
Weather: automated observation with no human augmentation;
there may or may not be significant weather present at this time

METAR text: KSPB 230943Z AUTO 26003KT 3SM BR FEW032 M02/M02 A3023 RMK AO2 I1001 T10171017
Conditions at: KSPB (SCAPPOOSE , OR, US) observed 0943 UTC 23 February 2017
Temperature: -1.7°C (29°F)
Dewpoint: -1.7°C (29°F) [RH = 100%]
Pressure (altimeter): 30.23 inches Hg (1023.8 mb)
Winds: from the W (260 degrees) at 3 MPH (3 knots; 1.6 m/s)
Visibility: 3 miles (5 km)
Ceiling: at least 12,000 feet AGL
Clouds: few clouds at 3200 feet AGL
Weather: BR  (mist)